sensor_id;sensor_type;location;lat;lon;timestamp;pressure;altitude;pressure_sealevel;temperature;humidity
16431;BME280;8325;49.284;7.238;2023-02-10T05:01:23;100831.69;;;-4.89;89.32
16431;BME280;8325;49.284;7.238;2023-02-10T05:05:35;100830.72;;;-4.82;89.63
16431;BME280;8325;49.284;7.238;2023-02-10T05:09:46;100830.69;;;-4.79;90.01
16431;BME280;8325;49.284;7.238;2023-02-10T05:13:58;100826.38;;;-4.75;89.26
16431;BME280;8325;49.284;7.238;2023-02-10T05:18:10;100834.00;;;-4.74;89.47
16431;BME280;8325;49.284;7.238;2023-02-10T05:22:22;100845.81;;;-4.68;89.52
16431;BME280;8325;49.284;7.238;2023-02-10T05:26:36;100841.50;;;-4.61;89.79
16431;BME280;8325;49.284;7.238;2023-02-10T05:30:48;100855.97;;;-4.65;89.87
16431;BME280;8325;49.284;7.238;2023-02-10T05:34:59;100859.53;;;-4.75;90.64
16431;BME280;8325;49.284;7.238;2023-02-10T05:39:11;100859.53;;;-4.75;91.66
16431;BME280;8325;49.284;7.238;2023-02-10T05:43:35;100862.69;;;-4.58;91.23
16431;BME280;8325;49.284;7.238;2023-02-10T05:47:47;100861.63;;;-4.45;91.12
16431;BME280;8325;49.284;7.238;2023-02-10T05:51:58;100862.41;;;-4.40;90.99
16431;BME280;8325;49.284;7.238;2023-02-10T05:56:10;100858.00;;;-4.30;90.78
16431;BME280;8325;49.284;7.238;2023-02-10T06:00:21;100864.75;;;-4.26;91.26
16431;BME280;8325;49.284;7.238;2023-02-10T06:04:33;100866.41;;;-4.22;91.38
16431;BME280;8325;49.284;7.238;2023-02-10T06:08:44;100866.25;;;-4.12;90.92
16431;BME280;8325;49.284;7.238;2023-02-10T06:12:56;100865.28;;;-4.07;90.50
16431;BME280;8325;49.284;7.238;2023-02-10T06:17:07;100862.69;;;-4.04;90.67
16431;BME280;8325;49.284;7.238;2023-02-10T06:21:20;100866.06;;;-4.02;90.68
16431;BME280;8325;49.284;7.238;2023-02-10T06:25:33;100869.34;;;-3.94;90.58
16431;BME280;8325;49.284;7.238;2023-02-10T06:29:47;100877.00;;;-3.94;90.73
16431;BME280;8325;49.284;7.238;2023-02-10T06:33:59;100871.81;;;-3.87;90.74
16431;BME280;8325;49.284;7.238;2023-02-10T06:38:11;100874.31;;;-3.86;91.05
16431;BME280;8325;49.284;7.238;2023-02-10T06:42:22;100875.88;;;-3.79;91.13
16431;BME280;8325;49.284;7.238;2023-02-10T06:46:34;100876.69;;;-3.75;91.20
16431;BME280;8325;49.284;7.238;2023-02-10T06:50:45;100873.31;;;-3.77;91.26
16431;BME280;8325;49.284;7.238;2023-02-10T06:54:57;100877.38;;;-3.65;91.48
16431;BME280;8325;49.284;7.238;2023-02-10T06:59:08;100882.44;;;-3.64;91.49
16431;BME280;8325;49.284;7.238;2023-02-10T07:03:20;100884.03;;;-3.57;91.52
16431;BME280;8325;49.284;7.238;2023-02-10T07:07:32;100887.25;;;-3.47;92.20
16431;BME280;8325;49.284;7.238;2023-02-10T07:11:43;100876.88;;;-3.39;91.72
16431;BME280;8325;49.284;7.238;2023-02-10T07:15:54;100879.25;;;-3.30;92.90
16431;BME280;8325;49.284;7.238;2023-02-10T07:20:06;100879.91;;;-3.19;92.35
16431;BME280;8325;49.284;7.238;2023-02-10T07:24:18;100878.00;;;-3.08;92.85
16431;BME280;8325;49.284;7.238;2023-02-10T07:28:30;100888.94;;;-3.01;92.65
16431;BME280;8325;49.284;7.238;2023-02-10T07:32:41;100896.31;;;-2.87;92.59
16431;BME280;8325;49.284;7.238;2023-02-10T07:36:53;100892.84;;;-2.83;92.46
16431;BME280;8325;49.284;7.238;2023-02-10T07:41:07;100892.59;;;-2.72;92.49
16431;BME280;8325;49.284;7.238;2023-02-10T07:45:19;100895.06;;;-2.68;92.80
16431;BME280;8325;49.284;7.238;2023-02-10T07:49:30;100900.84;;;-2.58;92.94
16431;BME280;8325;49.284;7.238;2023-02-10T07:53:42;100897.59;;;-0.95;100.00
16431;BME280;8325;49.284;7.238;2023-02-10T07:57:54;100895.25;;;-1.67;91.92
16431;BME280;8325;49.284;7.238;2023-02-10T08:02:07;100889.63;;;-1.81;92.34
16431;BME280;8325;49.284;7.238;2023-02-10T08:06:21;100903.59;;;-1.94;91.55
16431;BME280;8325;49.284;7.238;2023-02-10T08:10:33;100907.13;;;-1.98;92.13
16431;BME280;8325;49.284;7.238;2023-02-10T08:14:45;100906.84;;;-1.86;91.41
16431;BME280;8325;49.284;7.238;2023-02-10T08:18:57;100907.56;;;-1.81;90.83
16431;BME280;8325;49.284;7.238;2023-02-10T08:23:17;100910.81;;;-1.74;91.21
16431;BME280;8325;49.284;7.238;2023-02-10T08:27:29;100912.19;;;-1.61;91.06
16431;BME280;8325;49.284;7.238;2023-02-10T08:31:40;100922.78;;;-1.41;90.99
16431;BME280;8325;49.284;7.238;2023-02-10T08:35:52;100915.81;;;-1.35;90.91
16431;BME280;8325;49.284;7.238;2023-02-10T08:40:04;100907.00;;;-1.27;90.09
16431;BME280;8325;49.284;7.238;2023-02-10T08:44:16;100909.31;;;-1.16;90.71
16431;BME280;8325;49.284;7.238;2023-02-10T08:48:28;100913.28;;;-1.06;89.76
16431;BME280;8325;49.284;7.238;2023-02-10T08:52:41;100911.38;;;-0.99;89.66
16431;BME280;8325;49.284;7.238;2023-02-10T08:56:53;100917.06;;;-0.88;88.94
16431;BME280;8325;49.284;7.238;2023-02-10T09:01:14;100922.75;;;-0.77;89.02
16431;BME280;8325;49.284;7.238;2023-02-10T09:05:26;100919.00;;;-0.66;88.36
16431;BME280;8325;49.284;7.238;2023-02-10T09:09:40;100931.59;;;-0.57;87.42
16431;BME280;8325;49.284;7.238;2023-02-10T09:13:52;100929.56;;;-0.46;87.07
16431;BME280;8325;49.284;7.238;2023-02-10T09:18:05;100925.19;;;-0.44;85.45
16431;BME280;8325;49.284;7.238;2023-02-10T09:22:17;100943.88;;;-0.39;85.90
16431;BME280;8325;49.284;7.238;2023-02-10T09:26:28;100943.59;;;-0.30;85.88
16431;BME280;8325;49.284;7.238;2023-02-10T09:30:40;100951.94;;;-0.21;86.29
16431;BME280;8325;49.284;7.238;2023-02-10T09:34:53;100944.59;;;-0.06;85.38
16431;BME280;8325;49.284;7.238;2023-02-10T09:39:05;100951.94;;;0.05;84.88
16431;BME280;8325;49.284;7.238;2023-02-10T09:43:23;100952.38;;;0.18;83.88
16431;BME280;8325;49.284;7.238;2023-02-10T09:47:48;100940.88;;;0.30;83.76
16431;BME280;8325;49.284;7.238;2023-02-10T09:56:49;100939.63;;;0.41;83.04
16431;BME280;8325;49.284;7.238;2023-02-10T10:01:23;100931.75;;;0.46;82.78
16431;BME280;8325;49.284;7.238;2023-02-10T10:06:00;100945.25;;;0.53;82.07
16431;BME280;8325;49.284;7.238;2023-02-10T10:10:32;100939.84;;;0.60;81.40
16431;BME280;8325;49.284;7.238;2023-02-10T10:14:46;100950.44;;;0.76;83.10
16431;BME280;8325;49.284;7.238;2023-02-10T10:19:26;100954.81;;;0.99;82.54
16431;BME280;8325;49.284;7.238;2023-02-10T10:24:08;100958.69;;;1.11;80.45
16431;BME280;8325;49.284;7.238;2023-02-10T10:33:19;100967.13;;;1.38;79.05
16431;BME280;8325;49.284;7.238;2023-02-10T10:37:33;100957.53;;;1.42;76.50
16431;BME280;8325;49.284;7.238;2023-02-10T10:41:46;100964.28;;;1.46;77.11
16431;BME280;8325;49.284;7.238;2023-02-10T10:46:42;100960.69;;;1.50;76.94
16431;BME280;8325;49.284;7.238;2023-02-10T10:51:03;100955.38;;;1.54;76.92
16431;BME280;8325;49.284;7.238;2023-02-10T10:55:27;100947.41;;;1.60;76.45
16431;BME280;8325;49.284;7.238;2023-02-10T10:59:43;100952.84;;;1.75;76.39
16431;BME280;8325;49.284;7.238;2023-02-10T11:04:14;100952.25;;;1.90;78.86
16431;BME280;8325;49.284;7.238;2023-02-10T11:08:30;100946.25;;;2.12;76.23
16431;BME280;8325;49.284;7.238;2023-02-10T11:12:45;100930.94;;;2.29;74.70
16431;BME280;8325;49.284;7.238;2023-02-10T11:16:58;100923.75;;;2.37;73.90
16431;BME280;8325;49.284;7.238;2023-02-10T11:21:13;100926.19;;;2.61;74.25
16431;BME280;8325;49.284;7.238;2023-02-10T11:25:35;100911.72;;;2.77;73.03
16431;BME280;8325;49.284;7.238;2023-02-10T11:29:57;100911.19;;;2.89;72.10
16431;BME280;8325;49.284;7.238;2023-02-10T11:34:32;100914.28;;;2.97;72.72
16431;BME280;8325;49.284;7.238;2023-02-10T11:38:59;100918.84;;;3.30;72.40
16431;BME280;8325;49.284;7.238;2023-02-10T11:43:13;100922.06;;;3.54;72.79
16431;BME280;8325;49.284;7.238;2023-02-10T11:47:28;100921.03;;;3.57;70.33
16431;BME280;8325;49.284;7.238;2023-02-10T11:51:51;100913.25;;;3.58;69.96
16431;BME280;8325;49.284;7.238;2023-02-10T11:56:14;100916.50;;;3.62;70.82
16431;BME280;8325;49.284;7.238;2023-02-10T12:00:53;100907.28;;;3.56;69.96
16431;BME280;8325;49.284;7.238;2023-02-10T12:23:15;100908.13;;;3.76;70.87
16431;BME280;8325;49.284;7.238;2023-02-10T12:27:51;100905.94;;;3.85;70.95
16431;BME280;8325;49.284;7.238;2023-02-10T12:32:22;100896.44;;;3.86;70.39
16431;BME280;8325;49.284;7.238;2023-02-10T12:59:19;100884.66;;;4.50;69.20
16431;BME280;8325;49.284;7.238;2023-02-10T13:03:34;100879.69;;;4.45;70.11
16431;BME280;8325;49.284;7.238;2023-02-10T13:07:54;100864.06;;;4.64;69.63
16431;BME280;8325;49.284;7.238;2023-02-10T13:16:38;100868.84;;;4.72;68.97
16431;BME280;8325;49.284;7.238;2023-02-10T13:21:00;100874.09;;;4.70;69.03
16431;BME280;8325;49.284;7.238;2023-02-10T13:25:19;100876.97;;;4.81;68.91
16431;BME280;8325;49.284;7.238;2023-02-10T13:29:49;100874.50;;;4.96;69.37
16431;BME280;8325;49.284;7.238;2023-02-10T13:34:15;100877.66;;;5.01;69.30
16431;BME280;8325;49.284;7.238;2023-02-10T13:38:28;100871.41;;;5.05;68.70
16431;BME280;8325;49.284;7.238;2023-02-10T13:43:17;100868.56;;;5.10;67.98
16431;BME280;8325;49.284;7.238;2023-02-10T13:47:28;100869.06;;;5.16;68.25
16431;BME280;8325;49.284;7.238;2023-02-10T13:51:40;100865.75;;;5.14;68.83
16431;BME280;8325;49.284;7.238;2023-02-10T13:56:13;100878.44;;;5.19;69.58
16431;BME280;8325;49.284;7.238;2023-02-10T14:00:30;100869.72;;;5.20;69.86
16431;BME280;8325;49.284;7.238;2023-02-10T14:04:53;100864.97;;;5.12;68.88
16431;BME280;8325;49.284;7.238;2023-02-10T14:13:34;100855.28;;;5.00;68.59
16431;BME280;8325;49.284;7.238;2023-02-10T14:18:02;100853.00;;;4.94;68.77
16431;BME280;8325;49.284;7.238;2023-02-10T14:26:43;100848.66;;;4.94;69.25
16431;BME280;8325;49.284;7.238;2023-02-10T14:30:58;100850.47;;;4.76;69.59
16431;BME280;8325;49.284;7.238;2023-02-10T14:35:20;100840.88;;;4.78;70.35
16431;BME280;8325;49.284;7.238;2023-02-10T14:39:39;100841.31;;;4.87;70.58
16431;BME280;8325;49.284;7.238;2023-02-10T14:43:51;100842.16;;;4.87;70.01
16431;BME280;8325;49.284;7.238;2023-02-10T14:48:04;100837.69;;;4.89;70.33
16431;BME280;8325;49.284;7.238;2023-02-10T14:52:25;100835.53;;;4.81;70.04
16431;BME280;8325;49.284;7.238;2023-02-10T14:56:53;100836.03;;;4.72;70.10
16431;BME280;8325;49.284;7.238;2023-02-10T15:01:21;100838.94;;;4.66;70.10
16431;BME280;8325;49.284;7.238;2023-02-10T15:05:39;100838.31;;;4.61;70.74
16431;BME280;8325;49.284;7.238;2023-02-10T15:09:56;100834.56;;;4.51;70.93
16431;BME280;8325;49.284;7.238;2023-02-10T15:14:17;100828.75;;;4.46;71.05
16431;BME280;8325;49.284;7.238;2023-02-10T15:18:31;100839.59;;;4.36;71.55
16431;BME280;8325;49.284;7.238;2023-02-10T15:23:11;100837.31;;;4.30;71.65
16431;BME280;8325;49.284;7.238;2023-02-10T15:27:27;100842.94;;;4.21;71.74
16431;BME280;8325;49.284;7.238;2023-02-10T15:31:39;100841.34;;;4.19;72.68
16431;BME280;8325;49.284;7.238;2023-02-10T15:40:26;100847.38;;;4.02;73.49
16431;BME280;8325;49.284;7.238;2023-02-10T15:44:40;100845.63;;;4.02;73.81
16431;BME280;8325;49.284;7.238;2023-02-10T15:48:52;100835.13;;;4.05;73.68
16431;BME280;8325;49.284;7.238;2023-02-10T15:53:09;100830.72;;;4.07;73.95
16431;BME280;8325;49.284;7.238;2023-02-10T15:57:23;100828.34;;;4.03;73.96
16431;BME280;8325;49.284;7.238;2023-02-10T16:01:34;100830.94;;;4.03;74.48
16431;BME280;8325;49.284;7.238;2023-02-10T16:05:46;100824.41;;;3.96;75.16
16431;BME280;8325;49.284;7.238;2023-02-10T16:09:57;100830.56;;;3.93;75.16
16431;BME280;8325;49.284;7.238;2023-02-10T16:14:09;100837.78;;;3.86;75.86
16431;BME280;8325;49.284;7.238;2023-02-10T16:18:22;100834.72;;;3.78;76.34
16431;BME280;8325;49.284;7.238;2023-02-10T16:22:35;100828.13;;;3.73;76.88
16431;BME280;8325;49.284;7.238;2023-02-10T16:26:47;100824.09;;;3.67;76.94
16431;BME280;8325;49.284;7.238;2023-02-10T16:30:58;100818.44;;;3.59;77.56
16431;BME280;8325;49.284;7.238;2023-02-10T16:35:10;100834.41;;;3.50;77.88
16431;BME280;8325;49.284;7.238;2023-02-10T16:39:23;100836.94;;;3.32;79.19
16431;BME280;8325;49.284;7.238;2023-02-10T16:43:35;100836.38;;;3.26;79.28
16431;BME280;8325;49.284;7.238;2023-02-10T16:47:47;100830.66;;;3.19;79.51
16431;BME280;8325;49.284;7.238;2023-02-10T16:51:59;100833.75;;;3.08;79.93
16431;BME280;8325;49.284;7.238;2023-02-10T16:56:15;100839.19;;;3.02;80.57
16431;BME280;8325;49.284;7.238;2023-02-10T17:00:27;100840.66;;;2.89;81.11
16431;BME280;8325;49.284;7.238;2023-02-10T17:04:39;100843.72;;;2.78;81.42
16431;BME280;8325;49.284;7.238;2023-02-10T17:08:50;100842.88;;;2.59;81.95
16431;BME280;8325;49.284;7.238;2023-02-10T17:13:02;100839.38;;;2.39;82.67
16431;BME280;8325;49.284;7.238;2023-02-10T17:17:15;100847.16;;;2.19;83.46
16431;BME280;8325;49.284;7.238;2023-02-10T17:21:27;100847.00;;;2.01;83.73
16431;BME280;8325;49.284;7.238;2023-02-10T17:25:39;100852.00;;;1.84;84.59
16431;BME280;8325;49.284;7.238;2023-02-10T17:29:50;100861.25;;;1.68;85.03
16431;BME280;8325;49.284;7.238;2023-02-10T17:34:02;100864.31;;;1.55;85.51
16431;BME280;8325;49.284;7.238;2023-02-10T17:38:14;100869.03;;;1.44;85.78
16431;BME280;8325;49.284;7.238;2023-02-10T17:42:44;100872.03;;;1.33;86.54
16431;BME280;8325;49.284;7.238;2023-02-10T17:46:57;100866.28;;;1.27;86.76
16431;BME280;8325;49.284;7.238;2023-02-10T17:51:14;100865.00;;;1.15;87.02
16431;BME280;8325;49.284;7.238;2023-02-10T17:55:28;100874.69;;;1.08;86.68
16431;BME280;8325;49.284;7.238;2023-02-10T17:59:40;100877.63;;;0.98;87.14
16431;BME280;8325;49.284;7.238;2023-02-10T18:03:55;100880.72;;;0.84;87.53
16431;BME280;8325;49.284;7.238;2023-02-10T18:08:06;100881.81;;;0.77;87.91
16431;BME280;8325;49.284;7.238;2023-02-10T18:12:18;100869.56;;;0.60;88.15
16431;BME280;8325;49.284;7.238;2023-02-10T18:16:29;100876.56;;;0.56;88.57
16431;BME280;8325;49.284;7.238;2023-02-10T18:20:42;100876.06;;;0.45;88.92
16431;BME280;8325;49.284;7.238;2023-02-10T18:24:56;100880.69;;;0.35;88.79
16431;BME280;8325;49.284;7.238;2023-02-10T18:29:10;100872.47;;;0.26;88.78
16431;BME280;8325;49.284;7.238;2023-02-10T18:33:21;100889.75;;;0.20;89.05
16431;BME280;8325;49.284;7.238;2023-02-10T18:37:34;100885.72;;;0.13;89.18
16431;BME280;8325;49.284;7.238;2023-02-10T18:41:45;100889.38;;;0.06;88.86
16431;BME280;8325;49.284;7.238;2023-02-10T18:45:58;100902.38;;;0.02;89.05
16431;BME280;8325;49.284;7.238;2023-02-10T18:50:10;100899.91;;;-0.02;89.88
16431;BME280;8325;49.284;7.238;2023-02-10T18:54:22;100900.81;;;-0.03;89.79
16431;BME280;8325;49.284;7.238;2023-02-10T18:58:34;100908.75;;;-0.10;89.74
16431;BME280;8325;49.284;7.238;2023-02-10T19:02:46;100903.97;;;-0.21;90.24
16431;BME280;8325;49.284;7.238;2023-02-10T19:06:57;100912.50;;;-0.20;91.62
16431;BME280;8325;49.284;7.238;2023-02-10T19:11:11;100903.31;;;-0.28;90.37
16431;BME280;8325;49.284;7.238;2023-02-10T19:15:22;100904.38;;;-0.35;90.53
16431;BME280;8325;49.284;7.238;2023-02-10T19:19:34;100906.91;;;-0.33;89.97
16431;BME280;8325;49.284;7.238;2023-02-10T19:23:46;100920.75;;;-0.39;90.53
16431;BME280;8325;49.284;7.238;2023-02-10T19:27:57;100919.13;;;-0.41;90.53
16431;BME280;8325;49.284;7.238;2023-02-10T19:32:09;100918.38;;;-0.45;89.81
16431;BME280;8325;49.284;7.238;2023-02-10T19:36:22;100917.00;;;-0.55;91.24
16431;BME280;8325;49.284;7.238;2023-02-10T19:40:33;100912.72;;;-0.56;90.56
16431;BME280;8325;49.284;7.238;2023-02-10T19:44:45;100916.09;;;-0.54;90.61
16431;BME280;8325;49.284;7.238;2023-02-10T19:48:56;100919.81;;;-0.64;91.16
16431;BME280;8325;49.284;7.238;2023-02-10T19:53:08;100926.75;;;-0.68;90.77
16431;BME280;8325;49.284;7.238;2023-02-10T19:57:21;100922.47;;;-0.67;91.38
16431;BME280;8325;49.284;7.238;2023-02-10T20:01:33;100925.22;;;-0.74;91.40
16431;BME280;8325;49.284;7.238;2023-02-10T20:05:45;100919.28;;;-0.76;91.76
16431;BME280;8325;49.284;7.238;2023-02-10T20:09:56;100911.59;;;-0.76;92.42
16431;BME280;8325;49.284;7.238;2023-02-10T20:14:08;100905.56;;;-0.75;92.97
16431;BME280;8325;49.284;7.238;2023-02-10T20:18:21;100897.00;;;-0.74;93.51
16431;BME280;8325;49.284;7.238;2023-02-10T20:22:32;100904.53;;;-0.69;93.60
16431;BME280;8325;49.284;7.238;2023-02-10T20:26:45;100895.28;;;-0.75;94.17
16431;BME280;8325;49.284;7.238;2023-02-10T20:30:57;100891.84;;;-0.74;94.97
16431;BME280;8325;49.284;7.238;2023-02-10T20:35:11;100901.09;;;-0.68;94.37
16431;BME280;8325;49.284;7.238;2023-02-10T20:39:23;100895.03;;;-0.65;94.52
16431;BME280;8325;49.284;7.238;2023-02-10T20:43:35;100907.00;;;-0.64;95.36
16431;BME280;8325;49.284;7.238;2023-02-10T20:47:47;100905.94;;;-0.59;95.57
16431;BME280;8325;49.284;7.238;2023-02-10T20:51:59;100897.31;;;-0.56;95.20
16431;BME280;8325;49.284;7.238;2023-02-10T20:56:13;100896.53;;;-0.58;94.98
16431;BME280;8325;49.284;7.238;2023-02-10T21:00:26;100893.91;;;-0.57;94.81
16431;BME280;8325;49.284;7.238;2023-02-10T21:04:37;100897.47;;;-0.61;95.00
16431;BME280;8325;49.284;7.238;2023-02-10T21:08:50;100900.16;;;-0.65;95.00
16431;BME280;8325;49.284;7.238;2023-02-10T21:13:02;100886.44;;;-0.64;95.24
16431;BME280;8325;49.284;7.238;2023-02-10T21:17:14;100885.75;;;-0.70;94.80
16431;BME280;8325;49.284;7.238;2023-02-10T21:21:26;100885.84;;;-0.74;94.79
16431;BME280;8325;49.284;7.238;2023-02-10T21:25:37;100880.88;;;-0.79;95.40
16431;BME280;8325;49.284;7.238;2023-02-10T21:29:52;100880.03;;;-0.79;94.81
16431;BME280;8325;49.284;7.238;2023-02-10T21:34:06;100878.44;;;-0.83;95.35
16431;BME280;8325;49.284;7.238;2023-02-10T21:38:19;100856.94;;;-0.79;96.19
16431;BME280;8325;49.284;7.238;2023-02-10T21:42:31;100864.75;;;-0.84;96.78
16431;BME280;8325;49.284;7.238;2023-02-10T21:46:44;100857.97;;;-0.85;96.02
16431;BME280;8325;49.284;7.238;2023-02-10T21:50:56;100864.00;;;-0.86;95.67
16431;BME280;8325;49.284;7.238;2023-02-10T21:55:10;100864.84;;;-0.87;95.98
16431;BME280;8325;49.284;7.238;2023-02-10T21:59:22;100870.78;;;-0.85;96.46
16431;BME280;8325;49.284;7.238;2023-02-10T22:03:33;100869.63;;;-0.75;96.93
16431;BME280;8325;49.284;7.238;2023-02-10T22:07:47;100867.78;;;-0.70;97.32
16431;BME280;8325;49.284;7.238;2023-02-10T22:11:59;100864.94;;;-0.60;97.06
16431;BME280;8325;49.284;7.238;2023-02-10T22:16:14;100857.94;;;-0.55;97.34
16431;BME280;8325;49.284;7.238;2023-02-10T22:20:26;100837.13;;;-0.46;96.30
16431;BME280;8325;49.284;7.238;2023-02-10T22:24:38;100839.69;;;-0.46;97.37
16431;BME280;8325;49.284;7.238;2023-02-10T22:28:50;100822.47;;;-0.44;97.55
